Time;durP1;ratioP1;P1;durP2;ratioP2;P2;SDS_P1;SDS_P2;PMS_P1;PMS_P2;Temp;Humidity;BMP_temperature;BMP_pressure;BME280_temperature;BME280_humidity;BME280_pressure;Samples;Min_cycle;Max_cycle;Signal;HPM_P1;HPM_P2
2021/12/07 00:00:45;;;;;;;;;;;9.20;99.90;;;;;;5040775;28;20350;-79
2021/12/07 00:03:10;;;;;;;;;;;9.20;99.90;;;;;;5040484;28;19909;-79
2021/12/07 00:05:36;;;;;;;;;;;9.20;99.90;;;;;;5040481;28;19952;-79
2021/12/07 00:08:02;;;;;;;;;;;9.10;99.90;;;;;;5022633;28;20278;-79
2021/12/07 00:10:27;;;;;;;;;;;9.00;99.90;;;;;;5040488;28;20324;-79
2021/12/07 00:12:53;;;;;;;;;;;9.00;99.90;;;;;;5040172;28;19921;-80
2021/12/07 00:15:22;;;;;;;;;;;9.00;99.90;;;;;;5033963;28;19921;-79
2021/12/07 00:17:48;;;;;;;;;;;9.00;99.90;;;;;;5020436;28;19910;-79
2021/12/07 00:20:15;;;;;;;;;;;9.00;99.90;;;;;;5027504;28;19915;-79
2021/12/07 00:22:44;;;;;;;;;;;9.00;99.90;;;;;;5039626;28;19913;-79
2021/12/07 00:25:10;;;;;;;;;;;9.00;99.90;;;;;;5002810;28;20395;-79
2021/12/07 00:27:36;;;;;;;;;;;9.00;99.90;;;;;;5020133;28;19996;-79
2021/12/07 00:30:03;;;;;;;;;;;9.10;99.90;;;;;;5020453;28;19921;-80
2021/12/07 00:32:35;;;;;;;;;;;9.20;99.90;;;;;;5020172;28;19917;-79
2021/12/07 00:35:25;;;;;;;;;;;9.20;99.90;;;;;;5020115;28;20012;-79
2021/12/07 00:37:53;;;;;;;;;;;9.30;99.90;;;;;;5002406;28;19937;-79
2021/12/07 00:40:20;;;;;;;;;;;9.30;99.90;;;;;;5019976;28;20289;-79
2021/12/07 00:42:46;;;;;;;;;;;9.30;99.90;;;;;;5020030;28;20417;-79
2021/12/07 00:45:15;;;;;;;;;;;9.30;99.90;;;;;;5020027;28;19968;-78
2021/12/07 00:47:41;;;;;;;;;;;9.40;99.90;;;;;;5020013;28;19917;-79
2021/12/07 00:50:07;;;;;;;;;;;9.40;99.90;;;;;;5019777;28;19909;-78
2021/12/07 00:52:32;;;;;;;;;;;9.40;99.90;;;;;;5019722;28;19975;-79
2021/12/07 00:54:59;;;;;;;;;;;9.40;99.90;;;;;;5020001;28;19921;-79
2021/12/07 00:57:25;;;;;;;;;;;9.40;99.90;;;;;;5019724;28;19921;-80
2021/12/07 00:59:51;;;;;;;;;;;9.40;99.90;;;;;;5019728;28;20389;-80
2021/12/07 01:02:17;;;;;;;;;;;9.40;99.90;;;;;;5019593;28;19996;-79
2021/12/07 01:04:51;;;;;;;;;;;9.40;99.90;;;;;;5018237;28;20404;-79
2021/12/07 01:07:36;;;;;;;;;;;9.40;99.90;;;;;;5021650;28;19917;-79
2021/12/07 01:26:27;;;;;;;;;;;9.10;99.90;;;;;;5019316;28;19916;-80
2021/12/07 01:28:53;;;;;;;;;;;9.10;99.90;;;;;;5019198;28;19910;-80
2021/12/07 01:31:35;;;;;;;;;;;9.10;99.90;;;;;;5019144;28;19909;-79
2021/12/07 01:42:47;;;;;;;;;;;9.00;99.90;;;;;;5019071;28;19910;-81
2021/12/07 01:49:58;;;;;;;;;;;8.70;99.90;;;;;;5018509;28;19909;-80
2021/12/07 01:59:31;;;;;;;;;;;8.80;99.90;;;;;;5026778;28;19939;-80
2021/12/07 02:00:38;;;;;;;;;;;8.80;99.90;;;;;;5038077;28;19963;-80
2021/12/07 02:03:04;;;;;;;;;;;8.90;99.90;;;;;;5038298;28;19947;-80
2021/12/07 02:05:30;;;;;;;;;;;8.90;99.90;;;;;;5032125;28;19914;-79
2021/12/07 02:07:55;;;;;;;;;;;9.00;99.90;;;;;;5018638;28;19909;-80
2021/12/07 02:10:25;;;;;;;;;;;9.00;99.90;;;;;;5000533;28;19970;-80
2021/12/07 02:12:53;;;;;;;;;;;9.00;99.90;;;;;;5030627;28;20004;-81
2021/12/07 02:15:20;;;;;;;;;;;8.90;99.90;;;;;;5031971;28;19920;-80
2021/12/07 02:17:47;;;;;;;;;;;8.90;99.90;;;;;;5018522;28;19909;-80
2021/12/07 02:20:13;;;;;;;;;;;8.90;99.90;;;;;;5024653;28;19910;-80
2021/12/07 02:22:39;;;;;;;;;;;8.90;99.90;;;;;;5037173;28;19913;-79
2021/12/07 02:25:05;;;;;;;;;;;8.90;99.90;;;;;;5037988;28;19916;-80
2021/12/07 02:27:31;;;;;;;;;;;8.80;99.90;;;;;;5037866;28;19945;-79
2021/12/07 02:29:57;;;;;;;;;;;8.90;99.90;;;;;;5037976;28;19932;-79
2021/12/07 02:32:22;;;;;;;;;;;8.80;99.90;;;;;;5037957;28;19909;-80
2021/12/07 02:34:57;;;;;;;;;;;8.80;99.90;;;;;;5037772;28;19909;-79
2021/12/07 02:37:24;;;;;;;;;;;8.80;99.90;;;;;;5037763;28;19909;-80
2021/12/07 02:39:50;;;;;;;;;;;8.80;99.90;;;;;;5020198;28;19909;-79
2021/12/07 02:42:15;;;;;;;;;;;8.70;99.90;;;;;;5037634;28;19916;-80
2021/12/07 02:44:41;;;;;;;;;;;8.60;99.90;;;;;;5037773;28;19914;-79
2021/12/07 02:47:07;;;;;;;;;;;8.50;99.90;;;;;;5019933;28;19910;-80
2021/12/07 02:49:33;;;;;;;;;;;8.50;99.90;;;;;;5019802;28;19916;-79
2021/12/07 02:51:59;;;;;;;;;;;8.40;99.90;;;;;;5037950;28;20377;-80
2021/12/07 02:54:24;;;;;;;;;;;8.40;99.90;;;;;;5037707;28;19909;-80
2021/12/07 02:56:51;;;;;;;;;;;8.40;99.90;;;;;;5037511;28;19928;-80
2021/12/07 02:59:18;;;;;;;;;;;8.40;99.90;;;;;;5019868;28;19932;-79
2021/12/07 03:01:49;;;;;;;;;;;8.40;99.90;;;;;;5037445;28;19909;-80
2021/12/07 03:04:24;;;;;;;;;;;8.30;99.90;;;;;;5037506;28;19909;-81
2021/12/07 03:28:27;;;;;;;;;;;7.70;99.90;;;;;;5024499;28;19909;-80
2021/12/07 03:30:53;;;;;;;;;;;7.60;99.90;;;;;;5035968;28;19949;-80
2021/12/07 03:33:18;;;;;;;;;;;7.50;99.90;;;;;;5038873;28;19969;-80
2021/12/07 03:35:44;;;;;;;;;;;7.40;99.90;;;;;;5040740;28;19960;-80
2021/12/07 03:38:10;;;;;;;;;;;7.40;99.90;;;;;;5041220;28;19972;-81
2021/12/07 03:40:36;;;;;;;;;;;7.40;99.90;;;;;;5040864;28;19952;-81
2021/12/07 03:43:02;;;;;;;;;;;7.40;99.90;;;;;;5041202;28;19959;-80
2021/12/07 03:45:28;;;;;;;;;;;7.40;99.90;;;;;;5027178;28;20350;-80
2021/12/07 03:47:54;;;;;;;;;;;7.40;99.90;;;;;;5021490;28;19968;-81
2021/12/07 03:50:21;;;;;;;;;;;7.40;99.90;;;;;;5021097;28;19909;-80
2021/12/07 03:52:47;;;;;;;;;;;7.40;99.90;;;;;;5021092;28;19920;-79
2021/12/07 03:55:13;;;;;;;;;;;7.30;99.90;;;;;;5019462;28;19913;-80
2021/12/07 03:57:38;;;;;;;;;;;7.20;99.90;;;;;;5020943;28;20032;-80
2021/12/07 04:00:07;;;;;;;;;;;7.20;99.90;;;;;;5020770;28;19913;-80
2021/12/07 04:02:37;;;;;;;;;;;7.20;99.90;;;;;;5033169;28;19913;-79
2021/12/07 04:05:08;;;;;;;;;;;7.20;99.90;;;;;;5020481;28;19910;-78
2021/12/07 04:07:34;;;;;;;;;;;7.20;99.90;;;;;;5013295;28;19913;-78
2021/12/07 04:10:00;;;;;;;;;;;7.30;99.90;;;;;;5039683;28;20369;-78
2021/12/07 04:12:25;;;;;;;;;;;7.30;99.90;;;;;;5039608;28;19921;-79
2021/12/07 04:14:51;;;;;;;;;;;7.30;99.90;;;;;;5039686;28;19913;-78
2021/12/07 04:17:18;;;;;;;;;;;7.30;99.90;;;;;;5039943;28;19909;-79
2021/12/07 04:19:44;;;;;;;;;;;7.30;99.90;;;;;;5022013;28;19916;-79
2021/12/07 04:22:09;;;;;;;;;;;7.30;99.90;;;;;;5039735;28;20276;-79
2021/12/07 04:24:35;;;;;;;;;;;7.20;99.90;;;;;;5039563;28;19976;-79
2021/12/07 04:27:00;;;;;;;;;;;7.10;99.90;;;;;;5039711;28;19927;-79
2021/12/07 04:29:26;;;;;;;;;;;7.10;99.90;;;;;;5022003;28;19909;-79
2021/12/07 04:31:51;;;;;;;;;;;7.10;99.90;;;;;;5021702;28;19947;-78
2021/12/07 04:34:17;;;;;;;;;;;7.10;99.90;;;;;;5039290;28;20266;-79
2021/12/07 04:36:43;;;;;;;;;;;7.10;99.90;;;;;;5039175;28;19924;-80
2021/12/07 04:39:09;;;;;;;;;;;7.10;99.90;;;;;;5039412;28;20382;-79
2021/12/07 04:41:35;;;;;;;;;;;7.00;99.90;;;;;;5021515;28;19916;-80
2021/12/07 04:44:03;;;;;;;;;;;7.00;99.90;;;;;;5020817;28;19955;-80
2021/12/07 04:46:38;;;;;;;;;;;6.90;99.90;;;;;;5020975;28;19909;-79
2021/12/07 05:00:04;;;;;;;;;;;6.70;99.90;;;;;;5039607;28;20055;-80
2021/12/07 05:02:30;;;;;;;;;;;6.60;99.90;;;;;;5039620;28;20358;-80
2021/12/07 05:04:56;;;;;;;;;;;6.50;99.90;;;;;;5038218;28;19967;-80
2021/12/07 05:07:29;;;;;;;;;;;6.40;99.90;;;;;;5023569;28;19963;-80
2021/12/07 05:12:42;;;;;;;;;;;6.20;99.90;;;;;;5028261;28;19974;-80
2021/12/07 05:15:25;;;;;;;;;;;6.10;99.90;;;;;;5016600;28;19913;-80
2021/12/07 05:34:29;;;;;;;;;;;5.80;99.90;;;;;;5038786;28;20004;-80
2021/12/07 05:34:41;;;;;;;;;;;5.60;99.90;;;;;;5033020;28;20012;-80
2021/12/07 05:39:52;;;;;;;;;;;5.50;99.90;;;;;;5027956;28;19920;-80
2021/12/07 05:42:20;;;;;;;;;;;5.50;99.90;;;;;;5038573;28;19996;-80
2021/12/07 05:44:46;;;;;;;;;;;5.50;99.90;;;;;;5020960;28;19917;-80
2021/12/07 05:47:11;;;;;;;;;;;5.50;99.90;;;;;;5038197;28;19913;-80
2021/12/07 05:49:37;;;;;;;;;;;5.40;99.90;;;;;;5038560;28;20373;-80
2021/12/07 05:52:03;;;;;;;;;;;5.40;99.90;;;;;;5038369;28;19975;-80
2021/12/07 05:54:28;;;;;;;;;;;5.40;99.90;;;;;;5012695;28;19916;-80
2021/12/07 05:56:54;;;;;;;;;;;5.40;99.90;;;;;;5018344;28;20428;-81
2021/12/07 05:59:19;;;;;;;;;;;5.40;99.90;;;;;;5018728;28;19910;-81
2021/12/07 06:01:45;;;;;;;;;;;5.30;99.90;;;;;;5018699;28;19916;-80
2021/12/07 06:04:10;;;;;;;;;;;5.20;99.90;;;;;;5000751;28;19913;-80
2021/12/07 06:06:36;;;;;;;;;;;5.10;99.90;;;;;;5028527;28;20810;-81
2021/12/07 06:09:03;;;;;;;;;;;5.10;99.90;;;;;;5037646;28;19916;-81
2021/12/07 06:11:28;;;;;;;;;;;5.10;99.90;;;;;;5036581;28;20365;-80
2021/12/07 06:13:54;;;;;;;;;;;5.00;99.90;;;;;;5032402;28;20056;-80
2021/12/07 06:16:20;;;;;;;;;;;5.10;99.90;;;;;;5037863;28;19957;-80
2021/12/07 06:18:45;;;;;;;;;;;5.10;99.90;;;;;;5037585;28;19909;-80
2021/12/07 06:21:12;;;;;;;;;;;5.10;99.90;;;;;;5006578;28;20340;-80
2021/12/07 06:23:37;;;;;;;;;;;5.00;99.90;;;;;;5014240;28;19910;-81
2021/12/07 06:26:03;;;;;;;;;;;4.90;99.90;;;;;;5037159;28;19909;-81
2021/12/07 06:28:29;;;;;;;;;;;4.90;99.90;;;;;;5019612;28;20014;-81
2021/12/07 06:30:55;;;;;;;;;;;5.00;99.90;;;;;;5019486;28;19913;-80
2021/12/07 06:33:22;;;;;;;;;;;4.90;99.90;;;;;;5037234;28;19910;-80
2021/12/07 06:35:49;;;;;;;;;;;4.80;99.90;;;;;;5036976;28;20008;-80
2021/12/07 06:38:17;;;;;;;;;;;4.80;99.90;;;;;;5019752;28;19963;-80
2021/12/07 06:40:43;;;;;;;;;;;4.80;99.90;;;;;;5037746;28;19909;-80
2021/12/07 06:43:08;;;;;;;;;;;4.70;99.90;;;;;;5029260;28;19937;-80
2021/12/07 06:45:34;;;;;;;;;;;4.70;99.90;;;;;;5017835;28;20020;-80
2021/12/07 06:47:59;;;;;;;;;;;4.70;99.90;;;;;;5035580;28;20670;-80
2021/12/07 06:50:25;;;;;;;;;;;4.60;99.90;;;;;;5037096;28;19916;-80
2021/12/07 06:52:52;;;;;;;;;;;4.50;99.90;;;;;;5037677;28;19913;-80
2021/12/07 06:55:18;;;;;;;;;;;4.50;99.90;;;;;;5018940;28;19924;-80
2021/12/07 06:57:44;;;;;;;;;;;4.40;99.90;;;;;;5037470;28;19909;-79
2021/12/07 07:00:10;;;;;;;;;;;4.50;99.90;;;;;;5037173;28;19917;-82
2021/12/07 07:02:36;;;;;;;;;;;4.50;99.90;;;;;;5027457;28;19941;-82
2021/12/07 07:05:02;;;;;;;;;;;4.40;99.90;;;;;;5017324;28;20285;-83
2021/12/07 07:07:27;;;;;;;;;;;4.40;99.90;;;;;;5017871;28;19917;-82
2021/12/07 07:09:53;;;;;;;;;;;4.40;99.90;;;;;;5021679;28;19909;-81
2021/12/07 07:12:19;;;;;;;;;;;4.40;99.90;;;;;;5029414;28;19921;-81
2021/12/07 07:14:47;;;;;;;;;;;4.40;99.90;;;;;;5038939;28;20321;-82
2021/12/07 07:17:12;;;;;;;;;;;4.40;99.90;;;;;;5020157;28;20277;-81
2021/12/07 07:19:38;;;;;;;;;;;4.50;99.90;;;;;;5023446;28;19959;-81
2021/12/07 07:22:04;;;;;;;;;;;4.40;99.90;;;;;;5041546;28;19909;-81
2021/12/07 07:24:30;;;;;;;;;;;4.40;99.90;;;;;;5041219;28;19916;-81
2021/12/07 07:26:56;;;;;;;;;;;4.40;99.90;;;;;;5041389;28;19909;-81
2021/12/07 07:29:21;;;;;;;;;;;4.40;99.90;;;;;;5041391;28;20724;-81
2021/12/07 07:31:47;;;;;;;;;;;4.40;99.90;;;;;;5021106;28;20396;-81
2021/12/07 07:34:12;;;;;;;;;;;4.40;99.90;;;;;;5040201;28;19940;-81
2021/12/07 07:36:38;;;;;;;;;;;4.40;99.90;;;;;;5041104;28;19917;-81
2021/12/07 07:39:04;;;;;;;;;;;4.50;99.90;;;;;;5041075;28;20373;-82
2021/12/07 07:41:29;;;;;;;;;;;4.50;99.90;;;;;;5041649;28;19909;-81
2021/12/07 07:43:56;;;;;;;;;;;4.50;99.90;;;;;;5041398;28;20349;-82
2021/12/07 07:46:21;;;;;;;;;;;4.60;99.90;;;;;;5040847;28;19913;-82
2021/12/07 07:48:47;;;;;;;;;;;4.60;99.90;;;;;;5040348;28;20431;-82
2021/12/07 07:51:13;;;;;;;;;;;4.70;99.90;;;;;;5040926;28;19909;-82
2021/12/07 07:53:39;;;;;;;;;;;4.80;99.90;;;;;;5040684;28;20404;-82
2021/12/07 07:56:05;;;;;;;;;;;4.80;99.90;;;;;;5022904;28;19913;-81
2021/12/07 07:58:30;;;;;;;;;;;4.80;99.90;;;;;;5040210;28;20416;-81
2021/12/07 08:00:56;;;;;;;;;;;4.90;99.90;;;;;;5022706;28;19913;-80
2021/12/07 08:03:22;;;;;;;;;;;5.00;99.90;;;;;;5025397;28;19935;-81
2021/12/07 08:05:48;;;;;;;;;;;5.10;99.90;;;;;;5019572;28;19996;-81
2021/12/07 08:08:13;;;;;;;;;;;5.10;99.90;;;;;;5019380;28;20358;-81
2021/12/07 08:10:39;;;;;;;;;;;5.20;99.90;;;;;;5031942;28;19921;-81
2021/12/07 08:13:05;;;;;;;;;;;5.20;99.90;;;;;;5040216;28;20431;-82
2021/12/07 08:15:32;;;;;;;;;;;5.30;99.90;;;;;;5032874;28;19918;-81
2021/12/07 08:17:58;;;;;;;;;;;5.40;99.90;;;;;;5020577;28;19910;-82
2021/12/07 08:20:24;;;;;;;;;;;5.50;99.90;;;;;;5026853;28;19916;-81
2021/12/07 08:22:50;;;;;;;;;;;5.70;99.90;;;;;;5040191;28;20429;-82
2021/12/07 08:25:15;;;;;;;;;;;5.90;99.90;;;;;;5032433;28;20340;-82
2021/12/07 08:27:42;;;;;;;;;;;6.10;99.90;;;;;;5018995;28;19914;-82
2021/12/07 08:30:09;;;;;;;;;;;6.20;99.90;;;;;;5003000;28;19910;-82
2021/12/07 08:32:35;;;;;;;;;;;6.30;99.90;;;;;;5020083;28;19949;-81
2021/12/07 08:35:00;;;;;;;;;;;6.50;99.90;;;;;;5020074;28;19916;-82
2021/12/07 08:37:26;;;;;;;;;;;6.60;99.90;;;;;;5002433;28;19909;-82
2021/12/07 08:39:51;;;;;;;;;;;6.60;99.90;;;;;;5019245;28;19913;-81
2021/12/07 08:42:19;;;;;;;;;;;6.50;99.90;;;;;;5019779;28;20001;-82
2021/12/07 08:44:45;;;;;;;;;;;6.50;99.90;;;;;;5018851;28;20366;-82
2021/12/07 08:47:11;;;;;;;;;;;6.60;99.90;;;;;;5019853;28;20007;-82
2021/12/07 08:49:36;;;;;;;;;;;6.70;99.90;;;;;;5029911;28;19910;-83
2021/12/07 08:52:02;;;;;;;;;;;6.80;99.90;;;;;;5028825;28;19913;-82
2021/12/07 08:59:51;;;;;;;;;;;7.00;99.90;;;;;;5035919;28;19956;-82
2021/12/07 09:02:26;;;;;;;;;;;7.00;99.90;;;;;;5033068;28;19919;-82
2021/12/07 09:04:55;;;;;;;;;;;7.20;99.90;;;;;;5037758;28;19917;-82
2021/12/07 09:07:22;;;;;;;;;;;7.30;99.90;;;;;;5039441;28;19955;-83
2021/12/07 09:09:48;;;;;;;;;;;7.40;99.90;;;;;;5039291;28;20019;-83
2021/12/07 09:12:14;;;;;;;;;;;7.50;99.90;;;;;;5021230;28;19921;-83
2021/12/07 09:14:42;;;;;;;;;;;7.50;99.90;;;;;;5038903;28;19911;-82
2021/12/07 09:17:08;;;;;;;;;;;7.50;99.90;;;;;;5038998;28;19917;-82
2021/12/07 09:19:34;;;;;;;;;;;7.60;99.90;;;;;;5037516;28;19909;-82
2021/12/07 09:22:00;;;;;;;;;;;7.60;99.90;;;;;;5036650;28;19913;-83
2021/12/07 09:24:26;;;;;;;;;;;7.70;99.90;;;;;;5038555;28;19909;-82
2021/12/07 09:26:52;;;;;;;;;;;7.70;99.90;;;;;;5037484;28;20007;-82
2021/12/07 09:29:17;;;;;;;;;;;7.80;99.90;;;;;;5020420;28;20035;-83
2021/12/07 09:31:43;;;;;;;;;;;7.90;99.90;;;;;;5034483;28;19920;-82
2021/12/07 09:34:11;;;;;;;;;;;8.00;99.90;;;;;;5037458;28;20436;-82
2021/12/07 09:36:37;;;;;;;;;;;8.00;99.90;;;;;;5019250;28;19976;-82
2021/12/07 09:39:04;;;;;;;;;;;8.00;99.90;;;;;;5018916;28;19909;-82
2021/12/07 09:41:30;;;;;;;;;;;7.90;99.90;;;;;;5019033;28;19910;-83
2021/12/07 09:43:55;;;;;;;;;;;7.90;99.90;;;;;;5018851;28;20449;-82
2021/12/07 09:46:21;;;;;;;;;;;7.80;99.90;;;;;;5017610;28;19921;-82
2021/12/07 09:48:47;;;;;;;;;;;7.80;99.90;;;;;;5018626;28;20039;-82
2021/12/07 09:51:16;;;;;;;;;;;7.80;99.90;;;;;;5018924;28;19913;-82
2021/12/07 09:53:42;;;;;;;;;;;7.80;99.90;;;;;;5033992;28;19945;-82
2021/12/07 09:56:08;;;;;;;;;;;7.80;99.90;;;;;;5037095;28;19913;-82
2021/12/07 09:58:34;;;;;;;;;;;7.80;99.90;;;;;;5031034;28;19913;-82
2021/12/07 10:01:00;;;;;;;;;;;7.80;99.90;;;;;;5027835;28;19914;-83
2021/12/07 10:03:26;;;;;;;;;;;7.90;99.90;;;;;;5024019;28;20279;-82
2021/12/07 10:05:52;;;;;;;;;;;8.00;99.90;;;;;;5037725;28;19913;-82
2021/12/07 10:08:18;;;;;;;;;;;8.00;99.90;;;;;;5038277;28;19909;-82
2021/12/07 10:10:45;;;;;;;;;;;8.00;99.90;;;;;;5038398;28;19917;-82
2021/12/07 10:13:12;;;;;;;;;;;8.00;99.90;;;;;;5038034;28;19921;-83
2021/12/07 10:15:38;;;;;;;;;;;8.00;99.90;;;;;;5029742;28;19913;-82
2021/12/07 10:18:17;;;;;;;;;;;8.00;99.90;;;;;;5018665;28;19916;-82
2021/12/07 10:20:44;;;;;;;;;;;8.00;99.90;;;;;;5029287;28;19909;-82
2021/12/07 10:23:13;;;;;;;;;;;8.10;99.90;;;;;;5037968;28;19909;-81
2021/12/07 10:25:40;;;;;;;;;;;8.00;99.90;;;;;;5020153;28;19909;-82
2021/12/07 10:28:23;;;;;;;;;;;8.10;99.90;;;;;;5032397;28;19921;-82
2021/12/07 10:30:49;;;;;;;;;;;8.10;99.90;;;;;;5019943;28;19984;-82
2021/12/07 10:33:16;;;;;;;;;;;8.20;99.90;;;;;;5018311;28;20397;-82
2021/12/07 10:35:41;;;;;;;;;;;8.40;99.90;;;;;;5016468;28;19948;-82
2021/12/07 10:38:08;;;;;;;;;;;8.60;99.90;;;;;;5016934;28;19909;-82
2021/12/07 10:40:34;;;;;;;;;;;8.70;99.90;;;;;;5017999;28;19910;-82
2021/12/07 10:43:00;;;;;;;;;;;8.80;99.90;;;;;;5017304;28;19917;-82
2021/12/07 10:45:27;;;;;;;;;;;8.90;99.90;;;;;;5018267;28;19955;-82
2021/12/07 10:47:53;;;;;;;;;;;8.90;99.90;;;;;;5000384;28;19909;-82
2021/12/07 10:50:19;;;;;;;;;;;8.90;99.90;;;;;;5017731;28;19910;-82
2021/12/07 10:52:45;;;;;;;;;;;8.90;99.90;;;;;;5018180;28;19916;-82
2021/12/07 10:55:13;;;;;;;;;;;9.00;99.90;;;;;;4999950;28;19913;-82
2021/12/07 10:57:41;;;;;;;;;;;9.00;99.90;;;;;;5017720;28;20366;-82
2021/12/07 11:00:27;;;;;;;;;;;9.10;99.90;;;;;;5022912;28;19947;-82
2021/12/07 11:02:58;;;;;;;;;;;9.20;99.90;;;;;;5017709;28;20281;-82
2021/12/07 11:05:26;;;;;;;;;;;9.40;99.90;;;;;;5029650;28;19909;-82
2021/12/07 11:07:52;;;;;;;;;;;9.60;99.90;;;;;;5032853;28;19956;-83
2021/12/07 11:10:23;;;;;;;;;;;9.80;99.90;;;;;;5035628;28;20001;-83
2021/12/07 11:13:01;;;;;;;;;;;9.90;99.90;;;;;;5019578;28;20013;-82
2021/12/07 11:15:29;;;;;;;;;;;10.00;99.90;;;;;;5019752;28;19913;-82
2021/12/07 11:17:59;;;;;;;;;;;10.10;99.90;;;;;;5035853;28;20385;-82
2021/12/07 11:20:25;;;;;;;;;;;10.20;99.90;;;;;;5029532;28;19959;-83
2021/12/07 11:22:54;;;;;;;;;;;10.30;99.90;;;;;;5034749;28;19909;-83
2021/12/07 11:25:42;;;;;;;;;;;10.20;99.90;;;;;;5012487;28;19910;-83
2021/12/07 11:31:11;;;;;;;;;;;10.10;99.90;;;;;;5021609;28;19954;-83
2021/12/07 11:33:36;;;;;;;;;;;10.10;99.90;;;;;;5030800;28;19999;-82
2021/12/07 11:36:13;;;;;;;;;;;10.10;99.90;;;;;;5032657;28;20010;-82
2021/12/07 11:38:38;;;;;;;;;;;10.10;99.90;;;;;;5027592;28;19916;-82
2021/12/07 11:41:14;;;;;;;;;;;10.10;99.90;;;;;;5013888;28;20377;-83
2021/12/07 11:43:57;;;;;;;;;;;10.00;99.90;;;;;;5029071;28;19909;-83
2021/12/07 11:46:25;;;;;;;;;;;10.00;99.90;;;;;;5034570;28;19909;-82
2021/12/07 11:49:02;;;;;;;;;;;10.00;99.90;;;;;;5032067;28;19909;-83
2021/12/07 11:51:28;;;;;;;;;;;10.00;99.90;;;;;;5010158;28;19909;-83
2021/12/07 11:53:54;;;;;;;;;;;10.00;99.90;;;;;;5027186;28;20398;-83
2021/12/07 11:56:19;;;;;;;;;;;9.90;99.90;;;;;;5029475;28;19928;-83
2021/12/07 11:58:45;;;;;;;;;;;9.90;99.90;;;;;;5036549;28;19963;-83
2021/12/07 12:01:10;;;;;;;;;;;9.90;99.90;;;;;;5006126;28;19963;-83
2021/12/07 12:03:36;;;;;;;;;;;9.90;99.90;;;;;;5035713;28;19909;-83
2021/12/07 12:06:02;;;;;;;;;;;9.90;99.90;;;;;;5025318;28;20014;-84
2021/12/07 12:08:27;;;;;;;;;;;10.00;99.90;;;;;;5034449;28;20296;-83
2021/12/07 12:11:00;;;;;;;;;;;10.00;99.90;;;;;;5038790;28;19913;-82
2021/12/07 12:13:41;;;;;;;;;;;10.00;99.90;;;;;;5035708;28;19921;-83
2021/12/07 12:16:16;;;;;;;;;;;10.00;99.90;;;;;;5031363;28;19919;-83
2021/12/07 12:18:42;;;;;;;;;;;10.00;99.90;;;;;;5036523;28;20304;-83
2021/12/07 12:21:11;;;;;;;;;;;10.00;99.90;;;;;;5025565;28;20344;-83
2021/12/07 12:23:48;;;;;;;;;;;10.00;99.90;;;;;;5035757;28;19913;-82
2021/12/07 12:26:21;;;;;;;;;;;10.00;99.90;;;;;;5032820;28;19963;-83
2021/12/07 12:28:47;;;;;;;;;;;10.00;99.90;;;;;;5009976;28;20377;-83
2021/12/07 12:31:13;;;;;;;;;;;10.00;99.90;;;;;;5023298;28;20242;-83
2021/12/07 12:33:45;;;;;;;;;;;10.00;99.90;;;;;;5031456;28;19913;-81
2021/12/07 12:36:11;;;;;;;;;;;10.00;99.90;;;;;;5018349;28;19927;-81
2021/12/07 12:38:37;;;;;;;;;;;10.00;99.90;;;;;;5035996;28;19967;-81
2021/12/07 12:41:02;;;;;;;;;;;10.00;99.90;;;;;;5020386;28;19917;-81
2021/12/07 12:43:34;;;;;;;;;;;10.00;99.90;;;;;;5038666;28;19962;-80
2021/12/07 12:46:00;;;;;;;;;;;10.00;99.90;;;;;;5035762;28;19914;-80
2021/12/07 12:48:27;;;;;;;;;;;10.00;99.90;;;;;;5036274;28;19916;-83
2021/12/07 12:50:53;;;;;;;;;;;10.00;99.90;;;;;;5037162;28;20270;-84
2021/12/07 12:53:20;;;;;;;;;;;10.00;99.90;;;;;;5032456;28;20028;-81
2021/12/07 12:55:51;;;;;;;;;;;9.90;99.90;;;;;;5024826;28;19936;-81
2021/12/07 12:58:21;;;;;;;;;;;9.80;99.90;;;;;;5038340;28;19983;-81
2021/12/07 13:00:56;;;;;;;;;;;9.80;99.90;;;;;;5017960;28;20384;-81
2021/12/07 13:03:22;;;;;;;;;;;9.70;99.90;;;;;;5035493;28;19959;-82
2021/12/07 13:05:56;;;;;;;;;;;9.70;99.90;;;;;;5029215;28;20389;-81
2021/12/07 13:08:22;;;;;;;;;;;9.70;99.90;;;;;;5014650;28;19909;-83
2021/12/07 13:11:02;;;;;;;;;;;9.70;99.90;;;;;;5019840;28;19916;-80
2021/12/07 13:13:36;;;;;;;;;;;9.70;99.90;;;;;;5033257;28;20382;-83
2021/12/07 13:16:12;;;;;;;;;;;9.70;99.90;;;;;;5024013;28;19936;-83
2021/12/07 13:18:39;;;;;;;;;;;9.70;99.90;;;;;;5032705;28;19910;-82
2021/12/07 13:21:37;;;;;;;;;;;9.70;99.90;;;;;;5033152;28;19909;-82
2021/12/07 13:24:07;;;;;;;;;;;9.70;99.90;;;;;;5007858;28;20385;-83
2021/12/07 13:26:34;;;;;;;;;;;9.70;99.90;;;;;;5014159;28;19960;-82
2021/12/07 13:29:02;;;;;;;;;;;9.60;99.90;;;;;;5015302;28;19909;-82
2021/12/07 13:31:34;;;;;;;;;;;9.60;99.90;;;;;;5022562;28;19910;-83
2021/12/07 13:34:01;;;;;;;;;;;9.60;99.90;;;;;;5011904;28;19909;-84
2021/12/07 13:36:34;;;;;;;;;;;9.60;99.90;;;;;;5028010;28;20303;-83
2021/12/07 13:39:21;;;;;;;;;;;9.60;99.90;;;;;;5019066;28;19913;-84
2021/12/07 13:41:47;;;;;;;;;;;9.60;99.90;;;;;;5015682;28;19920;-84
2021/12/07 13:44:12;;;;;;;;;;;9.60;99.90;;;;;;5034208;28;19913;-84
2021/12/07 13:46:38;;;;;;;;;;;9.50;99.90;;;;;;5038172;28;20277;-83
2021/12/07 13:49:05;;;;;;;;;;;9.50;99.90;;;;;;5027654;28;20754;-83
2021/12/07 13:51:30;;;;;;;;;;;9.40;99.90;;;;;;5031878;28;19909;-83
2021/12/07 13:53:56;;;;;;;;;;;9.40;99.90;;;;;;5034661;28;19917;-83
2021/12/07 13:56:21;;;;;;;;;;;9.40;99.90;;;;;;5039823;28;20071;-83
2021/12/07 13:58:50;;;;;;;;;;;9.30;99.90;;;;;;5030782;28;19916;-83
2021/12/07 14:01:16;;;;;;;;;;;9.30;99.90;;;;;;5029465;28;20712;-83
2021/12/07 14:03:45;;;;;;;;;;;9.20;99.90;;;;;;5034003;28;20309;-83
2021/12/07 14:06:10;;;;;;;;;;;9.20;99.90;;;;;;5026936;28;19944;-83
2021/12/07 14:08:36;;;;;;;;;;;9.10;99.90;;;;;;5004642;28;19963;-82
2021/12/07 14:11:02;;;;;;;;;;;9.10;99.90;;;;;;5032521;28;19972;-82
2021/12/07 14:13:27;;;;;;;;;;;9.10;99.90;;;;;;5033229;28;20012;-83
2021/12/07 14:15:53;;;;;;;;;;;9.10;99.90;;;;;;5021461;28;19920;-84
2021/12/07 14:18:20;;;;;;;;;;;9.10;99.90;;;;;;5025592;28;19910;-83
2021/12/07 14:20:50;;;;;;;;;;;9.10;99.90;;;;;;5030184;28;19913;-83
2021/12/07 14:23:16;;;;;;;;;;;9.00;99.90;;;;;;5036387;28;19913;-82
2021/12/07 14:25:53;;;;;;;;;;;9.00;99.90;;;;;;5019638;28;19920;-84
2021/12/07 14:28:23;;;;;;;;;;;9.00;99.90;;;;;;5001880;28;20591;-82
2021/12/07 14:30:49;;;;;;;;;;;9.00;99.90;;;;;;5023529;28;19916;-84
2021/12/07 14:33:16;;;;;;;;;;;9.00;99.90;;;;;;5020488;28;19909;-83
2021/12/07 14:35:42;;;;;;;;;;;9.00;99.90;;;;;;5030336;28;20386;-83
2021/12/07 14:38:07;;;;;;;;;;;9.00;99.90;;;;;;5032261;28;20294;-84
2021/12/07 14:40:33;;;;;;;;;;;8.90;99.90;;;;;;5034862;28;19979;-83
2021/12/07 14:42:59;;;;;;;;;;;8.90;99.90;;;;;;5027582;28;19945;-83
2021/12/07 14:45:25;;;;;;;;;;;8.90;99.90;;;;;;5034012;28;19909;-83
2021/12/07 14:47:50;;;;;;;;;;;8.90;99.90;;;;;;5023709;28;19985;-84
2021/12/07 14:50:16;;;;;;;;;;;8.90;99.90;;;;;;5027497;28;19913;-83
2021/12/07 14:52:41;;;;;;;;;;;8.90;99.90;;;;;;5021226;28;19920;-83
2021/12/07 14:55:07;;;;;;;;;;;8.80;99.90;;;;;;5018449;28;19931;-83
2021/12/07 14:57:36;;;;;;;;;;;8.80;99.90;;;;;;5007749;28;19910;-83
2021/12/07 15:00:04;;;;;;;;;;;8.80;99.90;;;;;;5036693;28;19909;-81
2021/12/07 15:02:31;;;;;;;;;;;8.80;99.90;;;;;;5035708;28;19963;-83
2021/12/07 15:04:58;;;;;;;;;;;8.70;99.90;;;;;;5012852;28;19909;-83
2021/12/07 15:07:30;;;;;;;;;;;8.70;99.90;;;;;;5029256;28;19914;-84
2021/12/07 15:09:57;;;;;;;;;;;8.70;99.90;;;;;;5017861;28;19913;-83
2021/12/07 15:12:23;;;;;;;;;;;8.70;99.90;;;;;;5035400;28;19928;-83
2021/12/07 15:14:58;;;;;;;;;;;8.70;99.90;;;;;;5028579;28;20357;-84
2021/12/07 15:17:24;;;;;;;;;;;8.70;99.90;;;;;;5036269;28;19956;-84
2021/12/07 15:19:50;;;;;;;;;;;8.70;99.90;;;;;;5025116;28;19914;-84
2021/12/07 15:22:16;;;;;;;;;;;8.70;99.90;;;;;;5020186;28;20789;-81
2021/12/07 15:24:42;;;;;;;;;;;8.80;99.90;;;;;;5037125;28;20411;-82
2021/12/07 15:27:07;;;;;;;;;;;8.80;99.90;;;;;;5037108;28;19913;-80
2021/12/07 15:29:33;;;;;;;;;;;8.80;99.90;;;;;;5021127;28;19910;-83
2021/12/07 15:32:04;;;;;;;;;;;8.80;99.90;;;;;;5040674;28;19913;-82
2021/12/07 15:34:31;;;;;;;;;;;8.80;99.90;;;;;;5022990;28;19909;-82
2021/12/07 15:37:01;;;;;;;;;;;8.80;99.90;;;;;;5041095;28;20352;-82
2021/12/07 15:39:34;;;;;;;;;;;8.70;99.90;;;;;;5040977;28;19916;-82
2021/12/07 15:42:07;;;;;;;;;;;8.80;99.90;;;;;;5040710;28;19910;-85
2021/12/07 15:44:35;;;;;;;;;;;8.80;99.90;;;;;;5021457;28;20369;-83
2021/12/07 15:47:01;;;;;;;;;;;8.70;99.90;;;;;;5021822;28;20400;-84
2021/12/07 15:49:28;;;;;;;;;;;8.70;99.90;;;;;;5021448;28;19909;-82
2021/12/07 15:51:55;;;;;;;;;;;8.70;99.90;;;;;;5021199;28;19917;-82
2021/12/07 15:54:21;;;;;;;;;;;8.70;99.90;;;;;;5009939;28;19910;-82
2021/12/07 15:56:57;;;;;;;;;;;8.70;99.90;;;;;;5040823;28;20270;-83
2021/12/07 15:59:22;;;;;;;;;;;8.60;99.90;;;;;;5028942;28;19914;-83
2021/12/07 16:01:48;;;;;;;;;;;8.60;99.90;;;;;;5025404;28;19916;-80
2021/12/07 16:04:25;;;;;;;;;;;8.60;99.90;;;;;;5038390;28;19910;-80
2021/12/07 16:06:50;;;;;;;;;;;8.60;99.90;;;;;;5040520;28;19948;-80